createdAt,value
2019-02-17T00:00:44.617Z,69.02
2019-02-17T00:03:24.293Z,69.32
2019-02-17T00:06:04.752Z,69.42
2019-02-17T00:08:43.435Z,69.89
2019-02-17T00:11:16.750Z,70.00
2019-02-17T00:13:58.503Z,70.29
2019-02-17T00:16:33.097Z,70.19
2019-02-17T00:19:12.590Z,69.62
2019-02-17T00:22:05.497Z,69.22
2019-02-17T00:24:41.876Z,69.14
2019-02-17T00:27:28.443Z,69.49
2019-02-17T00:30:23.229Z,69.59
2019-02-17T00:33:01.869Z,69.90
2019-02-17T00:35:38.775Z,69.75
2019-02-17T00:38:19.394Z,69.91
2019-02-17T00:40:55.187Z,70.34
2019-02-17T00:43:34.846Z,70.03
2019-02-17T00:46:12.741Z,70.42
2019-02-17T00:48:56.791Z,70.14
2019-02-17T00:51:28.884Z,70.21
2019-02-17T00:54:02.419Z,70.39
2019-02-17T00:56:38.996Z,70.46
2019-02-17T00:59:14.567Z,70.33
2019-02-17T01:01:56.054Z,70.22
2019-02-17T01:04:31.058Z,69.80
2019-02-17T01:08:20.095Z,69.78
2019-02-17T01:10:08.140Z,69.85
2019-02-17T01:12:50.255Z,70.14
2019-02-17T01:15:28.851Z,70.35
2019-02-17T01:18:13.283Z,70.47
2019-02-17T01:20:50.531Z,70.40
2019-02-17T01:23:24.926Z,70.56
2019-02-17T01:25:57.231Z,70.76
2019-02-17T01:28:29.514Z,70.98
2019-02-17T01:31:03.654Z,71.23
2019-02-17T01:33:39.434Z,71.26
2019-02-17T01:36:11.156Z,71.52
2019-02-17T01:38:44.023Z,71.87
2019-02-17T01:41:15.805Z,72.19
2019-02-17T01:43:48.616Z,72.19
2019-02-17T01:46:20.430Z,72.37
2019-02-17T01:48:52.193Z,72.39
2019-02-17T01:51:24.004Z,72.46
2019-02-17T01:53:55.824Z,72.79
2019-02-17T01:56:27.749Z,72.88
2019-02-17T01:58:59.526Z,72.92
2019-02-17T02:01:31.280Z,72.95
2019-02-17T02:04:03.480Z,72.92
2019-02-17T02:06:35.356Z,72.76
2019-02-17T02:09:10.883Z,72.72
2019-02-17T02:11:42.791Z,72.71
2019-02-17T02:14:14.568Z,72.75
2019-02-17T02:16:46.406Z,72.89
2019-02-17T02:19:18.227Z,72.95
2019-02-17T02:21:50.148Z,72.77
2019-02-17T02:24:21.957Z,72.79
2019-02-17T02:26:53.768Z,72.81
2019-02-17T02:29:25.627Z,72.78
2019-02-17T02:31:57.422Z,72.95
2019-02-17T02:34:29.214Z,73.16
2019-02-17T02:37:01.058Z,73.50
2019-02-17T02:39:32.827Z,73.64
2019-02-17T02:42:04.616Z,73.73
2019-02-17T02:44:36.450Z,74.05
2019-02-17T02:47:08.326Z,74.12
2019-02-17T02:49:40.155Z,74.26
2019-02-17T02:52:11.982Z,74.52
2019-02-17T02:54:43.753Z,74.84
2019-02-17T02:57:15.543Z,75.22
2019-02-17T02:59:52.460Z,75.11
2019-02-17T03:02:20.813Z,75.15
2019-02-17T03:04:52.622Z,74.91
2019-02-17T03:07:24.750Z,74.66
2019-02-17T03:09:56.701Z,74.45
2019-02-17T03:12:28.518Z,74.56
2019-02-17T03:15:01.556Z,74.93
2019-02-17T03:17:33.312Z,75.05
2019-02-17T03:20:05.426Z,75.16
2019-02-17T03:22:37.233Z,75.21
2019-02-17T03:25:09.106Z,75.27
2019-02-17T03:27:40.926Z,75.19
2019-02-17T03:30:12.718Z,75.04
2019-02-17T03:32:44.526Z,75.05
2019-02-17T03:35:16.307Z,75.12
2019-02-17T03:37:48.076Z,75.25
2019-02-17T03:40:19.902Z,75.39
2019-02-17T03:42:51.822Z,75.67
2019-02-17T03:45:23.632Z,75.85
2019-02-17T03:47:55.442Z,75.77
2019-02-17T03:50:27.261Z,75.98
2019-02-17T03:52:59.109Z,76.32
2019-02-17T03:55:30.872Z,76.36
2019-02-17T03:58:02.726Z,76.71
2019-02-17T04:00:34.540Z,76.94
2019-02-17T04:03:06.503Z,77.03
2019-02-17T04:05:38.324Z,77.22
2019-02-17T04:08:10.132Z,77.45
2019-02-17T04:10:41.948Z,77.34
2019-02-17T04:13:13.836Z,77.31
2019-02-17T04:15:46.157Z,77.27
2019-02-17T04:18:18.006Z,77.46
2019-02-17T04:20:49.830Z,77.64
2019-02-17T04:23:30.858Z,77.86
2019-02-17T04:25:56.768Z,77.90
2019-02-17T04:28:28.624Z,77.95
2019-02-17T04:31:00.437Z,78.04
2019-02-17T04:33:32.220Z,78.15
2019-02-17T04:36:04.040Z,78.27
2019-02-17T04:38:35.820Z,78.68
2019-02-17T04:41:08.693Z,78.77
2019-02-17T04:43:40.489Z,78.86
2019-02-17T04:46:12.348Z,78.73
2019-02-17T04:48:44.172Z,78.70
2019-02-17T04:51:15.992Z,78.68
2019-02-17T04:53:47.748Z,78.52
2019-02-17T04:56:19.616Z,78.34
2019-02-17T04:58:51.436Z,78.15
2019-02-17T05:01:23.300Z,78.08
2019-02-17T05:03:55.132Z,78.71
2019-02-17T05:06:26.917Z,78.95
2019-02-17T05:09:00.471Z,79.54
2019-02-17T05:11:33.924Z,79.48
2019-02-17T05:14:05.729Z,79.86
2019-02-17T05:16:37.498Z,79.85
2019-02-17T05:19:09.454Z,80.02
2019-02-17T05:21:41.252Z,80.02
2019-02-17T05:24:13.137Z,80.11
2019-02-17T05:26:44.940Z,80.56
2019-02-17T05:29:16.752Z,80.80
2019-02-17T05:31:48.535Z,80.49
2019-02-17T05:34:20.334Z,80.45
2019-02-17T05:36:52.104Z,80.54
2019-02-17T05:39:23.911Z,80.52
2019-02-17T05:41:55.782Z,80.72
2019-02-17T05:44:27.600Z,80.67
2019-02-17T05:46:59.465Z,80.65
2019-02-17T05:49:31.316Z,80.65
2019-02-17T05:52:03.196Z,80.75
2019-02-17T05:54:35.028Z,80.64
2019-02-17T05:57:06.868Z,81.05
2019-02-17T05:59:38.703Z,81.51
2019-02-17T06:02:11.514Z,81.50
2019-02-17T06:04:43.356Z,81.66
2019-02-17T06:07:15.145Z,81.67
2019-02-17T06:09:47.077Z,81.90
2019-02-17T06:12:18.886Z,82.00
2019-02-17T06:14:50.654Z,81.91
2019-02-17T06:17:22.462Z,81.97
2019-02-17T06:19:54.249Z,82.04
2019-02-17T06:22:26.120Z,81.90
2019-02-17T06:24:57.988Z,81.90
2019-02-17T06:27:29.812Z,81.85
2019-02-17T06:30:01.662Z,81.87
2019-02-17T06:32:34.740Z,81.82
2019-02-17T06:35:06.836Z,81.60
2019-02-17T06:37:38.688Z,81.52
2019-02-17T06:40:10.529Z,81.05
2019-02-17T06:42:42.281Z,80.81
2019-02-17T06:45:14.249Z,80.78
2019-02-17T06:47:46.088Z,80.58
2019-02-17T06:50:17.978Z,80.36
2019-02-17T06:52:49.892Z,80.21
2019-02-17T06:55:35.744Z,80.01
2019-02-17T06:58:07.762Z,79.77
2019-02-17T07:00:45.432Z,79.58
2019-02-17T07:03:17.278Z,79.33
2019-02-17T07:06:10.736Z,78.94
2019-02-17T07:08:42.564Z,78.34
2019-02-17T07:11:14.474Z,78.15
2019-02-17T07:13:46.277Z,77.78
2019-02-17T07:16:19.825Z,77.50
2019-02-17T07:18:51.790Z,77.04
2019-02-17T07:21:23.747Z,76.55
2019-02-17T07:23:56.645Z,76.30
2019-02-17T07:26:28.500Z,76.32
2019-02-17T07:29:00.436Z,75.80
2019-02-17T07:31:34.803Z,75.56
2019-02-17T07:34:05.892Z,75.28
2019-02-17T07:36:37.721Z,74.55
2019-02-17T07:39:09.584Z,74.40
2019-02-17T07:47:38.133Z,72.99
2019-02-17T07:50:08.026Z,72.26
2019-02-17T07:52:48.364Z,72.08
2019-02-17T07:55:17.293Z,71.62
2019-02-17T07:57:49.212Z,71.93
2019-02-17T08:00:21.066Z,71.68
2019-02-17T08:02:52.873Z,71.29
2019-02-17T08:05:24.723Z,70.95
2019-02-17T08:07:56.626Z,69.68
2019-02-17T08:10:28.553Z,69.08
2019-02-17T08:13:00.402Z,69.33
2019-02-17T08:15:32.173Z,68.95
2019-02-17T08:18:05.144Z,67.79
2019-02-17T08:20:37.004Z,67.87
2019-02-17T08:23:10.487Z,66.59
2019-02-17T08:25:42.325Z,65.54
2019-02-17T08:28:14.132Z,65.65
2019-02-17T08:30:46.041Z,65.76
2019-02-17T08:33:18.821Z,65.65
2019-02-17T08:35:50.643Z,65.74
2019-02-17T08:38:22.460Z,64.64
2019-02-17T08:40:54.296Z,64.23
2019-02-17T08:43:26.128Z,63.86
2019-02-17T08:45:57.973Z,63.68
2019-02-17T08:48:29.803Z,63.26
2019-02-17T08:51:01.639Z,63.02
2019-02-17T08:53:33.413Z,62.50
2019-02-17T08:56:05.209Z,62.63
2019-02-17T08:58:38.749Z,61.70
2019-02-17T09:01:12.982Z,60.41
2019-02-17T09:03:45.003Z,60.25
2019-02-17T09:06:16.767Z,59.53
2019-02-17T09:08:48.632Z,60.16
2019-02-17T09:11:20.439Z,59.46
2019-02-17T09:13:55.235Z,58.19
2019-02-17T09:16:29.273Z,57.56
2019-02-17T09:19:01.099Z,58.30
2019-02-17T09:21:34.419Z,58.81
2019-02-17T09:24:06.275Z,58.90
2019-02-17T09:26:56.479Z,58.08
2019-02-17T09:29:28.777Z,56.83
2019-02-17T09:32:01.704Z,57.08
2019-02-17T09:34:35.889Z,56.59
2019-02-17T09:37:08.059Z,57.42
2019-02-17T09:39:39.859Z,57.37
2019-02-17T09:42:11.746Z,57.13
2019-02-17T09:44:44.574Z,55.91
2019-02-17T09:47:16.407Z,55.56
2019-02-17T09:49:48.360Z,55.24
2019-02-17T09:52:20.445Z,55.84
2019-02-17T09:54:52.502Z,56.01
2019-02-17T09:57:24.392Z,55.17
2019-02-17T09:59:57.231Z,55.05
2019-02-17T10:02:29.076Z,54.23
2019-02-17T10:05:00.911Z,53.71
2019-02-17T10:07:36.246Z,53.18
2019-02-17T10:10:13.808Z,53.81
2019-02-17T10:12:48.708Z,53.71
2019-02-17T10:15:24.476Z,53.45
2019-02-17T10:17:56.320Z,53.04
2019-02-17T10:20:28.177Z,53.57
2019-02-17T10:23:01.809Z,51.94
2019-02-17T10:25:36.026Z,52.79
2019-02-17T10:28:07.962Z,52.56
2019-02-17T10:30:39.857Z,52.12
2019-02-17T10:33:11.726Z,52.52
2019-02-17T10:35:43.649Z,51.75
2019-02-17T10:38:15.645Z,52.54
2019-02-17T10:40:51.532Z,51.47
2019-02-17T10:43:25.882Z,51.27
2019-02-17T10:45:58.812Z,52.08
2019-02-17T10:48:34.968Z,51.70
2019-02-17T10:51:06.892Z,50.95
2019-02-17T10:53:43.933Z,50.82
2019-02-17T10:56:17.608Z,50.85
2019-02-17T10:58:49.764Z,50.67
2019-02-17T11:01:29.656Z,50.11
2019-02-17T11:04:06.378Z,49.63
2019-02-17T11:06:39.338Z,49.16
2019-02-17T11:09:20.340Z,49.33
2019-02-17T11:11:52.752Z,49.05
2019-02-17T11:14:24.762Z,49.03
2019-02-17T11:16:56.661Z,48.40
2019-02-17T11:19:30.775Z,47.93
2019-02-17T11:22:02.724Z,48.32
2019-02-17T11:24:34.839Z,48.64
2019-02-17T11:27:08.469Z,48.40
2019-02-17T11:29:40.450Z,48.40
2019-02-17T11:32:15.548Z,48.38
2019-02-17T11:34:48.957Z,48.20
2019-02-17T11:37:20.824Z,47.83
2019-02-17T11:39:55.426Z,47.25
2019-02-17T11:42:33.521Z,47.11
2019-02-17T11:45:12.450Z,46.83
2019-02-17T11:47:44.740Z,45.92
2019-02-17T11:50:16.911Z,46.46
2019-02-17T11:52:48.840Z,45.54
2019-02-17T11:55:22.789Z,45.89
2019-02-17T11:57:54.356Z,46.54
2019-02-17T12:00:26.290Z,46.04
2019-02-17T12:03:07.533Z,45.75
2019-02-17T12:05:31.891Z,46.19
2019-02-17T12:08:03.791Z,46.07
2019-02-17T12:10:35.638Z,45.86
2019-02-17T12:13:07.507Z,45.97
2019-02-17T12:15:44.463Z,45.32
2019-02-17T12:18:16.780Z,45.73
2019-02-17T12:21:11.715Z,45.62
2019-02-17T12:23:51.656Z,44.97
2019-02-17T12:30:24.156Z,44.58
2019-02-17T12:32:59.785Z,44.58
2019-02-17T12:35:31.746Z,44.39
2019-02-17T12:38:06.137Z,44.34
2019-02-17T12:40:42.258Z,44.46
2019-02-17T12:43:20.744Z,44.24
2019-02-17T12:45:54.568Z,44.63
2019-02-17T12:48:31.927Z,43.92
2019-02-17T12:51:12.149Z,44.43
2019-02-17T12:53:47.814Z,44.87
2019-02-17T12:56:19.484Z,44.64
2019-02-17T12:58:51.415Z,45.05
2019-02-17T13:01:23.230Z,44.92
2019-02-17T13:03:55.208Z,45.05
2019-02-17T13:06:27.124Z,44.66
2019-02-17T13:08:59.011Z,44.80
2019-02-17T13:11:30.932Z,44.83
2019-02-17T13:14:02.770Z,44.69
2019-02-17T13:16:34.681Z,44.93
2019-02-17T13:19:06.537Z,44.79
2019-02-17T13:21:38.483Z,44.94
2019-02-17T13:24:10.353Z,44.70
2019-02-17T13:26:42.439Z,45.02
2019-02-17T13:29:14.407Z,45.39
2019-02-17T13:31:46.310Z,44.98
2019-02-17T13:34:18.167Z,45.45
2019-02-17T13:36:50.173Z,45.57
2019-02-17T13:39:22.071Z,45.56
2019-02-17T13:50:43.814Z,46.01
2019-02-17T14:05:45.268Z,46.31
2019-02-17T14:08:19.006Z,46.28
2019-02-17T14:10:54.257Z,46.56
2019-02-17T14:13:26.605Z,46.73
2019-02-17T14:15:58.978Z,46.78
2019-02-17T14:18:34.276Z,46.33
2019-02-17T14:21:06.518Z,46.50
2019-02-17T14:23:40.150Z,46.88
2019-02-17T14:26:15.294Z,46.97
2019-02-17T14:28:48.434Z,46.95
2019-02-17T14:31:20.653Z,47.10
2019-02-17T14:33:58.663Z,47.08
2019-02-17T14:36:29.082Z,46.74
2019-02-17T14:39:03.669Z,46.21
2019-02-17T14:41:39.654Z,46.46
2019-02-17T14:44:12.108Z,46.12
2019-02-17T14:46:46.934Z,46.37
2019-02-17T14:49:22.182Z,45.89
2019-02-17T14:51:54.600Z,46.17
2019-02-17T14:54:47.330Z,45.87
2019-02-17T14:57:11.489Z,46.37
2019-02-17T14:59:43.653Z,46.02
2019-02-17T15:02:21.916Z,45.86
2019-02-17T15:05:04.547Z,45.74
2019-02-17T15:07:34.852Z,45.96
2019-02-17T15:10:17.510Z,45.66
2019-02-17T15:15:56.258Z,46.01
2019-02-17T15:18:58.602Z,46.35
2019-02-17T15:22:01.198Z,46.75
2019-02-17T15:24:38.646Z,46.55
2019-02-17T15:27:20.008Z,47.13
2019-02-17T15:30:18.894Z,47.53
2019-02-17T15:32:51.595Z,47.67
2019-02-17T15:35:36.000Z,47.99
2019-02-17T15:38:13.058Z,48.23
2019-02-17T15:40:54.279Z,48.37
2019-02-17T15:43:26.322Z,48.64
2019-02-17T15:46:41.364Z,48.47
2019-02-17T15:49:17.039Z,48.84
2019-02-17T15:52:07.926Z,49.09
2019-02-17T15:54:47.389Z,49.18
2019-02-17T15:57:38.023Z,48.72
2019-02-17T16:00:27.771Z,48.56
2019-02-17T16:03:02.281Z,48.96
2019-02-17T16:05:38.964Z,49.57
2019-02-17T16:08:19.453Z,50.45
2019-02-17T16:11:00.161Z,51.30
2019-02-17T16:13:39.330Z,51.90
2019-02-17T16:16:13.135Z,52.55
2019-02-17T16:19:00.971Z,53.04
2019-02-17T16:21:33.260Z,52.15
2019-02-17T16:24:07.292Z,52.26
2019-02-17T16:26:46.135Z,53.00
2019-02-17T17:37:22.533Z,64.46
2019-02-17T17:40:46.013Z,66.13
2019-02-17T17:43:16.127Z,67.22
2019-02-17T17:45:54.228Z,67.68
2019-02-17T17:48:35.289Z,68.74
2019-02-17T17:51:11.349Z,68.91
2019-02-17T17:53:43.583Z,70.23
2019-02-17T17:56:18.770Z,69.88
2019-02-17T17:58:50.835Z,70.48
2019-02-17T18:01:22.979Z,70.68
2019-02-17T18:03:57.217Z,69.52
2019-02-17T18:06:34.043Z,69.40
2019-02-17T18:09:11.447Z,68.63
2019-02-17T18:11:47.205Z,68.78
2019-02-17T18:15:05.254Z,69.25
2019-02-17T18:17:53.824Z,69.48
2019-02-17T18:21:28.093Z,69.76
2019-02-17T18:33:02.955Z,68.84
2019-02-17T18:34:52.269Z,69.11
2019-02-17T18:37:24.206Z,68.72
2019-02-17T18:39:56.252Z,68.00
2019-02-17T18:42:28.304Z,68.10
2019-02-17T18:45:00.382Z,68.10
2019-02-17T18:47:32.469Z,68.23
2019-02-17T18:50:06.094Z,68.37
2019-02-17T18:52:38.024Z,68.33
2019-02-17T18:55:10.447Z,68.76
2019-02-17T18:57:49.951Z,69.03
2019-02-17T19:00:17.776Z,69.39
2019-02-17T19:02:49.889Z,69.86
2019-02-17T19:05:31.537Z,71.01
2019-02-17T19:08:51.471Z,71.76
2019-02-17T19:11:19.960Z,73.64
2019-02-17T19:13:52.626Z,74.29
2019-02-17T19:16:24.708Z,74.07
2019-02-17T19:18:56.780Z,73.93
2019-02-17T19:21:28.599Z,73.63
2019-02-17T19:24:01.905Z,73.21
2019-02-17T19:26:33.901Z,73.61
2019-02-17T19:29:05.890Z,73.38
2019-02-17T19:31:38.043Z,73.26
2019-02-17T19:34:11.044Z,73.08
2019-02-17T19:36:43.020Z,73.09
2019-02-17T19:39:14.980Z,73.42
2019-02-17T19:41:47.144Z,73.31
2019-02-17T19:44:19.167Z,73.15
2019-02-17T19:46:51.238Z,73.45
2019-02-17T19:49:23.211Z,73.52
2019-02-17T19:51:55.125Z,73.61
2019-02-17T19:54:27.024Z,73.92
2019-02-17T19:56:59.155Z,74.15
2019-02-17T19:59:32.247Z,74.11
2019-02-17T20:02:06.058Z,74.20
2019-02-17T20:04:42.794Z,74.37
2019-02-17T20:07:16.022Z,74.60
2019-02-17T20:09:48.607Z,74.83
2019-02-17T20:12:20.742Z,74.90
2019-02-17T20:14:52.960Z,75.04
2019-02-17T20:17:25.045Z,75.22
2019-02-17T20:19:56.992Z,75.27
2019-02-17T20:22:29.044Z,75.51
2019-02-17T20:25:01.081Z,75.58
2019-02-17T20:27:34.305Z,75.56
2019-02-17T20:30:06.710Z,75.61
2019-02-17T20:32:38.692Z,76.25
2019-02-17T20:35:10.716Z,75.93
2019-02-17T20:37:42.775Z,76.93
2019-02-17T20:40:14.763Z,76.69
2019-02-17T20:42:46.667Z,76.95
2019-02-17T20:45:18.520Z,76.85
2019-02-17T20:47:50.347Z,76.97
2019-02-17T20:50:22.196Z,77.82
2019-02-17T20:52:54.125Z,77.14
2019-02-17T20:55:26.045Z,77.01
2019-02-17T20:57:57.937Z,76.97
2019-02-17T21:00:30.128Z,77.08
2019-02-17T21:03:01.973Z,77.85
2019-02-17T21:05:33.896Z,77.56
2019-02-17T21:08:05.759Z,78.45
2019-02-17T21:10:37.833Z,78.67
2019-02-17T21:13:09.869Z,78.54
2019-02-17T21:15:41.733Z,78.24
2019-02-17T21:18:13.734Z,79.32
2019-02-17T21:20:45.908Z,79.25
2019-02-17T21:23:18.155Z,78.96
2019-02-17T21:25:50.173Z,78.69
2019-02-17T21:28:22.055Z,78.56
2019-02-17T21:30:53.935Z,78.46
2019-02-17T21:33:25.748Z,78.87
2019-02-17T21:35:57.693Z,79.37
2019-02-17T21:38:29.685Z,79.61
2019-02-17T21:41:08.930Z,79.43
2019-02-17T21:43:35.173Z,79.84
2019-02-17T21:46:07.033Z,80.23
2019-02-17T21:48:38.895Z,80.09
2019-02-17T21:51:10.833Z,80.27
2019-02-17T21:53:42.803Z,80.10
2019-02-17T21:56:14.867Z,80.02
2019-02-17T21:58:46.772Z,80.15
2019-02-17T22:01:18.763Z,80.49
2019-02-17T22:03:51.060Z,80.14
2019-02-17T22:06:32.907Z,79.72
2019-02-17T22:08:56.525Z,79.71
2019-02-17T22:11:29.559Z,80.17
2019-02-17T22:14:01.439Z,80.14
2019-02-17T22:16:33.354Z,80.36
2019-02-17T22:19:05.193Z,81.24
2019-02-17T22:21:37.153Z,81.57
2019-02-17T22:24:09.047Z,81.67
2019-02-17T22:26:40.999Z,81.71
2019-02-17T22:29:13.100Z,81.49
2019-02-17T22:31:45.022Z,81.33
2019-02-17T22:34:16.976Z,82.59
2019-02-17T22:36:48.934Z,82.74
2019-02-17T22:39:20.821Z,83.05
2019-02-17T22:41:52.805Z,83.09
2019-02-17T22:44:25.702Z,82.86
2019-02-17T22:46:57.674Z,83.04
2019-02-17T22:49:29.580Z,82.88
2019-02-17T22:52:01.514Z,82.88
2019-02-17T22:54:33.478Z,82.29
2019-02-17T22:57:05.425Z,82.97
2019-02-17T22:59:37.418Z,83.09
2019-02-17T23:02:11.815Z,82.70
2019-02-17T23:04:43.290Z,82.57
2019-02-17T23:07:15.234Z,82.58
2019-02-17T23:09:47.201Z,82.40
2019-02-17T23:12:19.151Z,82.41
2019-02-17T23:14:51.110Z,82.03
2019-02-17T23:17:22.995Z,81.98
2019-02-17T23:19:54.811Z,82.07
2019-02-17T23:22:26.663Z,82.14
2019-02-17T23:24:58.634Z,81.98
2019-02-17T23:27:30.492Z,81.78
2019-02-17T23:30:02.415Z,81.42
2019-02-17T23:32:35.856Z,81.23
2019-02-17T23:35:09.222Z,81.22
2019-02-17T23:37:40.980Z,81.35
2019-02-17T23:40:13.113Z,81.93
2019-02-17T23:42:44.962Z,81.99
2019-02-17T23:45:16.824Z,82.15
2019-02-17T23:47:48.753Z,82.07
2019-02-17T23:50:20.622Z,81.71
2019-02-17T23:52:54.490Z,81.76
2019-02-17T23:55:26.142Z,81.91
2019-02-17T23:57:58.045Z,82.03
